Terminal Aerodrome Forecast
Issued by NWS Denver/Boulder, CO

Home | Current Version | Previous Version | Text Only | Print | Product List | Glossary On
Versions: 1 2 3 4 5 6 7 8 9 10 11 12 13 14 15 16 17 18 19 20 21 22 23 24 25 26 27 28 29 30 31 32 33 34 35 36 37 38 39 40 41 42 43 44 45 46 47 48 49 50
163
FTUS45 KBOU 230939 AAA
TAFDEN
TAF AMD
KDEN 230939Z 2310/2412 35010KT P6SM SCT100
     FM231100 06010KT P6SM VCSH SCT006 BKN070
      TEMPO 2313/2316 BKN006
     FM231600 06012KT P6SM SCT015 OVC060
     FM232100 35018G28KT P6SM SCT020 OVC040
      TEMPO 2322/2402 4SM -SHSN OVC020
     FM240200 01015G24KT 3SM -SHSN BR SCT008 BKN012 OVC020
     FM240800 36008KT P6SM VCSH SCT008 BKN015 OVC025=

USA.gov is the U.S. government's official web portal to all federal, state and local government web resources and services.